Time;durP1;ratioP1;P1;durP2;ratioP2;P2;SDS_P1;SDS_P2;PMS_P1;PMS_P2;Temp;Humidity;BMP_temperature;BMP_pressure;BME280_temperature;BME280_humidity;BME280_pressure;Samples;Min_cycle;Max_cycle;Signal;HPM_P1;HPM_P2
2023/07/26 00:01:08;;;;;;;;;;;;;;;15.81;100.00;99265.06;5056249;28;20263;-77
2023/07/26 00:03:34;;;;;;;;;;;;;;;15.78;100.00;99262.50;5055978;28;19916;-76
2023/07/26 00:06:01;;;;;;;;;;;;;;;15.75;100.00;99270.19;5056847;28;20423;-75
2023/07/26 00:08:27;;;;;;;;;;;;;;;15.76;100.00;99273.84;5056402;28;19912;-76
2023/07/26 00:10:54;;;;;;;;;;;;;;;15.75;100.00;99280.91;5055127;28;19916;-75
2023/07/26 00:13:21;;;;;;;;;;;;;;;15.68;100.00;99279.47;5056203;28;19916;-77
2023/07/26 00:15:47;;;;;;;;;;;;;;;15.63;100.00;99274.59;5054817;28;19948;-75
2023/07/26 00:18:12;;;;;;;;;;;;;;;15.57;100.00;99274.66;5054821;28;19919;-77
2023/07/26 00:20:38;;;;;;;;;;;;;;;15.55;100.00;99277.34;5055695;28;19908;-77
2023/07/26 00:23:04;;;;;;;;;;;;;;;15.51;100.00;99281.88;5055934;28;19920;-78
2023/07/26 00:25:30;;;;;;;;;;;;;;;15.45;100.00;99281.22;5055811;28;19908;-78
2023/07/26 00:27:56;;;;;;;;;;;;;;;15.43;100.00;99283.84;5055347;28;20377;-77
2023/07/26 00:30:23;;;;;;;;;;;;;;;15.42;100.00;99288.06;5055758;28;20385;-75
2023/07/26 00:32:49;;;;;;;;;;;;;;;15.39;100.00;99295.69;5055760;28;20243;-77
2023/07/26 00:35:23;;;;;;;;;;;;;;;15.37;100.00;99297.56;5037541;28;19978;-77
2023/07/26 00:37:49;;;;;;;;;;;;;;;15.34;100.00;99292.91;5037978;28;19959;-77
2023/07/26 00:40:15;;;;;;;;;;;;;;;15.32;100.00;99299.22;5037721;28;19913;-76
2023/07/26 00:42:48;;;;;;;;;;;;;;;15.28;100.00;99299.56;5037680;28;20266;-76
2023/07/26 00:45:14;;;;;;;;;;;;;;;15.23;100.00;99297.56;5055604;28;19916;-75
2023/07/26 00:47:39;;;;;;;;;;;;;;;15.22;100.00;99293.13;5055469;28;19962;-75
2023/07/26 00:50:05;;;;;;;;;;;;;;;15.19;100.00;99294.22;5037465;28;20281;-77
2023/07/26 00:52:31;;;;;;;;;;;;;;;15.18;100.00;99300.53;5055296;28;19909;-77
2023/07/26 00:55:05;;;;;;;;;;;;;;;15.17;100.00;99305.50;5037615;28;19913;-76
2023/07/26 00:57:32;;;;;;;;;;;;;;;15.15;100.00;99302.41;5055232;28;19916;-76
2023/07/26 00:59:57;;;;;;;;;;;;;;;15.15;100.00;99304.50;5037193;28;19998;-77
2023/07/26 01:02:22;;;;;;;;;;;;;;;15.16;100.00;99297.44;5037318;28;19940;-77
2023/07/26 01:04:49;;;;;;;;;;;;;;;15.16;100.00;99303.19;5055291;28;20278;-78
2023/07/26 01:07:16;;;;;;;;;;;;;;;15.09;100.00;99295.97;5053990;28;20054;-77
2023/07/26 01:09:48;;;;;;;;;;;;;;;15.07;100.00;99298.59;5037057;28;19919;-75
2023/07/26 01:12:19;;;;;;;;;;;;;;;15.09;100.00;99301.72;5054974;28;20003;-76
2023/07/26 01:14:50;;;;;;;;;;;;;;;15.10;100.00;99302.50;5054458;28;20441;-76
2023/07/26 01:17:15;;;;;;;;;;;;;;;15.13;100.00;99298.50;5054905;28;19908;-76
2023/07/26 01:19:41;;;;;;;;;;;;;;;15.11;100.00;99304.84;5054577;28;19915;-76
2023/07/26 01:22:08;;;;;;;;;;;;;;;15.09;100.00;99298.06;5054628;28;19909;-76
2023/07/26 01:24:34;;;;;;;;;;;;;;;15.07;100.00;99289.22;5054971;28;19913;-76
2023/07/26 01:26:59;;;;;;;;;;;;;;;15.01;100.00;99297.94;5036816;28;19919;-77
2023/07/26 01:29:25;;;;;;;;;;;;;;;15.00;100.00;99298.50;5054868;28;19971;-76
2023/07/26 01:31:50;;;;;;;;;;;;;;;14.97;100.00;99308.97;5036735;28;19909;-76
2023/07/26 01:34:15;;;;;;;;;;;;;;;14.96;100.00;99306.66;5054617;28;19908;-77
2023/07/26 01:36:41;;;;;;;;;;;;;;;14.90;100.00;99306.75;5054545;28;20022;-76
2023/07/26 01:39:07;;;;;;;;;;;;;;;14.82;100.00;99318.09;5020129;28;19915;-76
2023/07/26 01:41:34;;;;;;;;;;;;;;;14.77;100.00;99321.84;5037238;28;19935;-78
2023/07/26 01:44:00;;;;;;;;;;;;;;;14.75;100.00;99317.97;5036804;28;20425;-76
2023/07/26 01:46:27;;;;;;;;;;;;;;;14.73;100.00;99323.47;5054851;28;19931;-76
2023/07/26 01:48:53;;;;;;;;;;;;;;;14.73;100.00;99324.25;5036567;28;19925;-77
2023/07/26 01:51:19;;;;;;;;;;;;;;;14.74;100.00;99331.56;5054177;28;20053;-76
2023/07/26 01:53:46;;;;;;;;;;;;;;;14.74;100.00;99333.66;5054040;28;19912;-76
2023/07/26 01:56:12;;;;;;;;;;;;;;;14.73;100.00;99314.84;5054311;28;19909;-75
2023/07/26 01:58:38;;;;;;;;;;;;;;;14.69;100.00;99332.44;5054358;28;19915;-76
2023/07/26 02:01:04;;;;;;;;;;;;;;;14.66;100.00;99335.63;5053968;28;19913;-77
2023/07/26 02:03:30;;;;;;;;;;;;;;;14.65;100.00;99328.31;5054348;28;19915;-75
2023/07/26 02:05:56;;;;;;;;;;;;;;;14.63;100.00;99325.19;5054100;28;19908;-76
2023/07/26 02:08:21;;;;;;;;;;;;;;;14.58;100.00;99317.41;5053865;28;19912;-77
2023/07/26 02:10:48;;;;;;;;;;;;;;;14.54;100.00;99322.69;5036086;28;20326;-76
2023/07/26 02:13:14;;;;;;;;;;;;;;;14.53;100.00;99321.16;5053737;28;20437;-76
2023/07/26 02:15:40;;;;;;;;;;;;;;;14.52;100.00;99317.50;5036050;28;19909;-76
2023/07/26 02:18:06;;;;;;;;;;;;;;;14.49;100.00;99329.31;5019020;28;19908;-76
2023/07/26 02:20:33;;;;;;;;;;;;;;;14.48;100.00;99331.41;5035997;28;20285;-78
2023/07/26 02:22:58;;;;;;;;;;;;;;;14.45;100.00;99337.47;5036224;28;19912;-77
2023/07/26 02:25:23;;;;;;;;;;;;;;;14.36;100.00;99339.41;5019897;28;20384;-77
2023/07/26 02:27:48;;;;;;;;;;;;;;;14.34;100.00;99350.66;5053482;28;19909;-76
2023/07/26 02:30:14;;;;;;;;;;;;;;;14.29;100.00;99345.00;5035496;28;19921;-75
2023/07/26 02:32:40;;;;;;;;;;;;;;;14.31;100.00;99360.38;5034925;28;19909;-76
2023/07/26 02:35:06;;;;;;;;;;;;;;;14.26;100.00;99358.34;5053499;28;19909;-76
2023/07/26 02:37:32;;;;;;;;;;;;;;;14.18;100.00;99359.50;5035681;28;19915;-75
2023/07/26 02:39:57;;;;;;;;;;;;;;;14.15;100.00;99363.47;5052686;28;19935;-77
2023/07/26 02:42:25;;;;;;;;;;;;;;;14.12;100.00;99367.41;5053769;28;20357;-78
2023/07/26 02:44:50;;;;;;;;;;;;;;;14.13;100.00;99369.75;5053742;28;19916;-76
2023/07/26 02:47:17;;;;;;;;;;;;;;;14.15;100.00;99377.81;5035491;28;20297;-76
2023/07/26 02:49:43;;;;;;;;;;;;;;;14.05;100.00;99376.63;5035548;28;19912;-76
2023/07/26 02:52:08;;;;;;;;;;;;;;;13.92;100.00;99380.19;5053352;28;19909;-76
2023/07/26 02:54:33;;;;;;;;;;;;;;;13.85;100.00;99377.91;5033298;28;19916;-75
2023/07/26 02:56:59;;;;;;;;;;;;;;;13.82;100.00;99385.50;5053656;28;19999;-75
2023/07/26 02:59:25;;;;;;;;;;;;;;;13.80;100.00;99402.50;5053458;28;19916;-77
2023/07/26 03:01:51;;;;;;;;;;;;;;;13.81;100.00;99404.06;5053125;28;19958;-76
2023/07/26 03:04:18;;;;;;;;;;;;;;;13.80;100.00;99404.56;5053609;28;19987;-76
2023/07/26 03:06:45;;;;;;;;;;;;;;;13.80;100.00;99410.31;5053501;28;19932;-76
2023/07/26 03:09:11;;;;;;;;;;;;;;;13.75;100.00;99409.06;5035353;28;19960;-75
2023/07/26 03:11:37;;;;;;;;;;;;;;;13.71;100.00;99408.59;5035421;28;19955;-77
2023/07/26 03:14:03;;;;;;;;;;;;;;;13.66;100.00;99415.16;5053186;28;19921;-77
2023/07/26 03:16:28;;;;;;;;;;;;;;;13.64;100.00;99420.66;5052856;28;20281;-78
2023/07/26 03:18:54;;;;;;;;;;;;;;;13.56;100.00;99428.31;5052754;28;19913;-77
2023/07/26 03:21:21;;;;;;;;;;;;;;;13.52;100.00;99428.59;5017294;28;19909;-77
2023/07/26 03:23:47;;;;;;;;;;;;;;;13.47;100.00;99431.47;5051771;28;19908;-77
2023/07/26 03:26:14;;;;;;;;;;;;;;;13.45;100.00;99434.09;5035416;28;19931;-76
2023/07/26 03:28:40;;;;;;;;;;;;;;;13.44;100.00;99438.31;5035595;28;20281;-77
2023/07/26 03:31:06;;;;;;;;;;;;;;;13.44;100.00;99444.78;5053261;28;20009;-77
2023/07/26 03:33:32;;;;;;;;;;;;;;;13.41;100.00;99443.00;5053375;28;19909;-75
2023/07/26 03:35:58;;;;;;;;;;;;;;;13.42;100.00;99447.44;5053284;28;19934;-75
2023/07/26 03:38:23;;;;;;;;;;;;;;;13.36;100.00;99455.31;5018767;28;20322;-78
2023/07/26 03:40:48;;;;;;;;;;;;;;;13.38;100.00;99455.56;5052087;28;20362;-77
2023/07/26 03:43:14;;;;;;;;;;;;;;;13.39;100.00;99464.94;5053402;28;19944;-76
2023/07/26 03:45:40;;;;;;;;;;;;;;;13.39;100.00;99468.56;5038874;28;19912;-75
2023/07/26 03:48:06;;;;;;;;;;;;;;;13.39;100.00;99468.56;5038262;28;19932;-76
2023/07/26 03:50:33;;;;;;;;;;;;;;;13.37;100.00;99471.22;5022326;28;20358;-77
2023/07/26 03:52:58;;;;;;;;;;;;;;;13.34;100.00;99478.00;5056650;28;19909;-75
2023/07/26 03:55:25;;;;;;;;;;;;;;;13.32;100.00;99477.00;5056614;28;19978;-75
2023/07/26 03:57:50;;;;;;;;;;;;;;;13.27;100.00;99480.69;5038708;28;19913;-76
2023/07/26 04:00:16;;;;;;;;;;;;;;;13.29;100.00;99489.53;5056299;28;20339;-76
2023/07/26 04:02:43;;;;;;;;;;;;;;;13.31;100.00;99493.44;5056325;28;19916;-78
2023/07/26 04:05:08;;;;;;;;;;;;;;;13.38;100.00;99492.09;5055971;28;19908;-78
2023/07/26 04:07:40;;;;;;;;;;;;;;;13.44;100.00;99498.56;5055847;28;20277;-78
2023/07/26 04:10:05;;;;;;;;;;;;;;;13.48;100.00;99505.59;5056501;28;19916;-75
2023/07/26 04:12:30;;;;;;;;;;;;;;;13.52;100.00;99500.34;5056212;28;19913;-77
2023/07/26 04:15:08;;;;;;;;;;;;;;;13.55;100.00;99513.63;5055795;28;19917;-76
2023/07/26 04:17:34;;;;;;;;;;;;;;;13.57;100.00;99512.31;5056360;28;19908;-77
2023/07/26 04:20:00;;;;;;;;;;;;;;;13.55;100.00;99510.75;5037922;28;19913;-77
2023/07/26 04:22:26;;;;;;;;;;;;;;;13.55;100.00;99519.38;5055413;28;19916;-77
2023/07/26 04:24:51;;;;;;;;;;;;;;;13.55;100.00;99522.25;5055964;28;20376;-77
2023/07/26 04:27:17;;;;;;;;;;;;;;;13.60;100.00;99523.50;5055349;28;19909;-76
2023/07/26 04:29:44;;;;;;;;;;;;;;;13.61;100.00;99525.09;5055874;28;20021;-75
2023/07/26 04:32:09;;;;;;;;;;;;;;;13.66;100.00;99534.97;5055939;28;19909;-78
2023/07/26 04:34:37;;;;;;;;;;;;;;;13.64;100.00;99529.00;5055658;28;19923;-76
2023/07/26 04:37:03;;;;;;;;;;;;;;;13.60;100.00;99531.34;5055781;28;20228;-75
2023/07/26 04:39:28;;;;;;;;;;;;;;;13.61;100.00;99535.78;5037944;28;19962;-76
2023/07/26 04:41:53;;;;;;;;;;;;;;;13.67;100.00;99542.28;5055822;28;19913;-76
2023/07/26 04:44:20;;;;;;;;;;;;;;;13.70;100.00;99546.94;5055826;28;19908;-77
2023/07/26 04:46:48;;;;;;;;;;;;;;;13.71;100.00;99540.66;5054691;28;20324;-74
2023/07/26 04:49:13;;;;;;;;;;;;;;;13.75;100.00;99546.13;5055700;28;20335;-75
2023/07/26 04:51:39;;;;;;;;;;;;;;;13.78;100.00;99542.97;5056423;28;19950;-77
2023/07/26 04:54:05;;;;;;;;;;;;;;;13.77;100.00;99541.41;5037211;28;19921;-75
2023/07/26 04:56:32;;;;;;;;;;;;;;;13.75;100.00;99543.25;5054207;28;20423;-78
2023/07/26 04:58:58;;;;;;;;;;;;;;;13.75;100.00;99538.28;5053878;28;19908;-75
2023/07/26 05:01:23;;;;;;;;;;;;;;;13.73;100.00;99548.75;5054029;28;19919;-77
2023/07/26 05:03:49;;;;;;;;;;;;;;;13.71;100.00;99545.63;5055456;28;20289;-77
2023/07/26 05:06:15;;;;;;;;;;;;;;;13.67;100.00;99548.78;5055500;28;19913;-77
2023/07/26 05:08:42;;;;;;;;;;;;;;;13.68;100.00;99549.56;5055093;28;19935;-78
2023/07/26 05:11:09;;;;;;;;;;;;;;;13.68;100.00;99553.22;5055050;28;19913;-76
2023/07/26 05:13:35;;;;;;;;;;;;;;;13.69;100.00;99554.00;5054804;28;19917;-75
2023/07/26 05:16:00;;;;;;;;;;;;;;;13.71;100.00;99559.97;5055601;28;19909;-76
2023/07/26 05:18:26;;;;;;;;;;;;;;;13.75;100.00;99560.47;5055179;28;19915;-78
2023/07/26 05:20:51;;;;;;;;;;;;;;;13.79;100.00;99560.97;5020429;28;20372;-78
2023/07/26 05:23:17;;;;;;;;;;;;;;;13.79;100.00;99561.75;5036925;28;20003;-78
2023/07/26 05:25:44;;;;;;;;;;;;;;;13.78;100.00;99563.06;5037404;28;19932;-76
2023/07/26 05:28:11;;;;;;;;;;;;;;;13.81;100.00;99567.75;5055041;28;20285;-77
2023/07/26 05:30:40;;;;;;;;;;;;;;;13.83;100.00;99578.72;5036848;28;19912;-76
2023/07/26 05:33:06;;;;;;;;;;;;;;;13.86;100.00;99584.16;5037133;28;20016;-77
2023/07/26 05:35:32;;;;;;;;;;;;;;;13.89;100.00;99582.28;5055031;28;19958;-78
2023/07/26 05:37:59;;;;;;;;;;;;;;;13.92;100.00;99584.91;5054687;28;19909;-76
2023/07/26 05:40:25;;;;;;;;;;;;;;;13.95;100.00;99591.66;5036690;28;19916;-78
2023/07/26 05:42:51;;;;;;;;;;;;;;;13.99;100.00;99595.00;5020121;28;19955;-76
2023/07/26 05:45:17;;;;;;;;;;;;;;;13.99;100.00;99589.25;5054376;28;19908;-77
2023/07/26 05:47:43;;;;;;;;;;;;;;;13.98;100.00;99602.84;5036023;28;19916;-76
2023/07/26 05:50:10;;;;;;;;;;;;;;;13.96;100.00;99594.00;5053646;28;19913;-77
2023/07/26 05:52:37;;;;;;;;;;;;;;;13.92;100.00;99595.59;5036998;28;19908;-78
2023/07/26 05:55:02;;;;;;;;;;;;;;;13.92;100.00;99595.59;5054300;28;19913;-76
2023/07/26 05:57:29;;;;;;;;;;;;;;;13.92;100.00;99605.00;5053270;28;19931;-78
2023/07/26 05:59:55;;;;;;;;;;;;;;;13.90;100.00;99612.56;5051810;28;19946;-77
2023/07/26 06:02:20;;;;;;;;;;;;;;;13.92;100.00;99621.47;5053680;28;19913;-76
2023/07/26 06:04:46;;;;;;;;;;;;;;;13.95;100.00;99623.25;5053021;28;19982;-76
2023/07/26 06:07:13;;;;;;;;;;;;;;;14.00;100.00;99625.31;5042199;28;19927;-78
2023/07/26 06:09:44;;;;;;;;;;;;;;;14.00;100.00;99613.81;5053266;28;20431;-76
2023/07/26 06:12:10;;;;;;;;;;;;;;;14.05;100.00;99633.09;5044432;28;19919;-75
2023/07/26 06:14:35;;;;;;;;;;;;;;;14.11;100.00;99636.72;5044164;28;20321;-76
2023/07/26 06:17:00;;;;;;;;;;;;;;;14.17;100.00;99640.34;5053333;28;19917;-78
2023/07/26 06:19:26;;;;;;;;;;;;;;;14.17;100.00;99643.22;5053410;28;19951;-76
2023/07/26 06:21:58;;;;;;;;;;;;;;;14.05;100.00;99641.72;5053715;28;19915;-75
2023/07/26 06:24:25;;;;;;;;;;;;;;;14.11;100.00;99648.22;5053227;28;20354;-77
2023/07/26 06:26:51;;;;;;;;;;;;;;;14.19;100.00;99648.41;5035256;28;19986;-77
2023/07/26 06:29:17;;;;;;;;;;;;;;;14.16;100.00;99653.13;5035309;28;19921;-77
2023/07/26 06:31:45;;;;;;;;;;;;;;;14.17;100.00;99648.97;5035761;28;19908;-73
2023/07/26 06:34:10;;;;;;;;;;;;;;;14.20;100.00;99658.59;5018900;28;20266;-73
2023/07/26 06:36:36;;;;;;;;;;;;;;;14.18;100.00;99658.34;5053520;28;19909;-72
2023/07/26 06:39:02;;;;;;;;;;;;;;;14.24;100.00;99647.56;5035467;28;20308;-73
2023/07/26 06:41:28;;;;;;;;;;;;;;;14.27;100.00;99661.69;5052779;28;19913;-73
2023/07/26 06:43:57;;;;;;;;;;;;;;;14.31;100.00;99662.16;5034766;28;20318;-74
2023/07/26 06:46:24;;;;;;;;;;;;;;;14.39;100.00;99662.34;5035216;28;20270;-71
2023/07/26 06:48:49;;;;;;;;;;;;;;;14.43;100.00;99668.59;5035221;28;19913;-72
2023/07/26 06:51:14;;;;;;;;;;;;;;;14.48;100.00;99672.75;5053155;28;19977;-73
2023/07/26 06:53:47;;;;;;;;;;;;;;;14.50;100.00;99658.59;5034845;28;19909;-73
2023/07/26 06:56:12;;;;;;;;;;;;;;;14.58;100.00;99671.06;5053044;28;19912;-72
2023/07/26 06:58:38;;;;;;;;;;;;;;;14.57;100.00;99678.16;5052488;28;19988;-72
2023/07/26 07:01:03;;;;;;;;;;;;;;;14.52;100.00;99679.00;5034852;28;19909;-71
2023/07/26 07:03:30;;;;;;;;;;;;;;;14.56;100.00;99679.47;5035164;28;20328;-72
2023/07/26 07:05:55;;;;;;;;;;;;;;;14.61;100.00;99679.44;5018509;28;19912;-71
2023/07/26 07:08:20;;;;;;;;;;;;;;;14.65;100.00;99685.69;5052929;28;19909;-73
2023/07/26 07:10:46;;;;;;;;;;;;;;;14.65;100.00;99682.03;5052906;28;19908;-73
2023/07/26 07:13:11;;;;;;;;;;;;;;;14.74;100.00;99684.56;5052624;28;20339;-73
2023/07/26 07:15:37;;;;;;;;;;;;;;;14.81;100.00;99684.75;5044446;28;19999;-73
2023/07/26 07:18:03;;;;;;;;;;;;;;;14.84;100.00;99686.53;5033475;28;19955;-72
2023/07/26 07:20:28;;;;;;;;;;;;;;;14.87;100.00;99692.56;5036622;28;19948;-72
2023/07/26 07:22:54;;;;;;;;;;;;;;;14.91;100.00;99690.94;5036237;28;19908;-71
2023/07/26 07:25:20;;;;;;;;;;;;;;;14.97;100.00;99696.63;5036824;28;20282;-72
2023/07/26 07:27:45;;;;;;;;;;;;;;;15.00;100.00;99701.31;5036258;28;19912;-72
2023/07/26 07:30:11;;;;;;;;;;;;;;;15.01;100.00;99697.13;5035171;28;20267;-74
2023/07/26 07:32:38;;;;;;;;;;;;;;;15.01;100.00;99700.78;5035101;28;19916;-72
2023/07/26 07:35:05;;;;;;;;;;;;;;;15.01;100.00;99703.66;5036456;28;19909;-72
2023/07/26 07:37:31;;;;;;;;;;;;;;;14.99;100.00;99706.28;5036800;28;19915;-73
2023/07/26 07:39:56;;;;;;;;;;;;;;;14.97;100.00;99703.16;5035943;28;20071;-72
2023/07/26 07:42:22;;;;;;;;;;;;;;;14.90;100.00;99698.00;5051183;28;20433;-72
2023/07/26 07:44:47;;;;;;;;;;;;;;;14.81;100.00;99699.13;5037615;28;19920;-72
2023/07/26 07:47:14;;;;;;;;;;;;;;;14.80;100.00;99700.44;5056099;28;19995;-72
2023/07/26 07:49:39;;;;;;;;;;;;;;;14.79;100.00;99700.97;5052998;28;20023;-72
2023/07/26 07:52:04;;;;;;;;;;;;;;;14.83;100.00;99699.38;5038114;28;20351;-72
2023/07/26 07:54:31;;;;;;;;;;;;;;;14.89;100.00;99696.44;5055650;28;19909;-72
2023/07/26 07:56:56;;;;;;;;;;;;;;;14.97;100.00;99699.50;5021517;28;19908;-72
2023/07/26 07:59:22;;;;;;;;;;;;;;;15.05;100.00;99698.38;5037424;28;19950;-73
2023/07/26 08:01:47;;;;;;;;;;;;;;;15.20;100.00;99703.72;5055776;28;20000;-72
2023/07/26 08:04:14;;;;;;;;;;;;;;;15.32;100.00;99705.13;5055876;28;19948;-73
2023/07/26 08:06:39;;;;;;;;;;;;;;;15.44;100.00;99714.44;5038034;28;20011;-72
2023/07/26 08:09:05;;;;;;;;;;;;;;;15.54;100.00;99706.97;5021145;28;20003;-72
2023/07/26 08:11:30;;;;;;;;;;;;;;;15.61;100.00;99717.94;5055154;28;19908;-73
2023/07/26 08:13:56;;;;;;;;;;;;;;;15.72;100.00;99717.75;5030443;28;20451;-73
2023/07/26 08:16:23;;;;;;;;;;;;;;;15.87;100.00;99712.31;5015967;28;20389;-71
2023/07/26 08:18:48;;;;;;;;;;;;;;;16.07;100.00;99711.78;5015740;28;19952;-72
2023/07/26 08:21:13;;;;;;;;;;;;;;;16.24;100.00;99720.19;5015897;28;19952;-73
2023/07/26 08:23:39;;;;;;;;;;;;;;;16.34;100.00;99717.69;5031260;28;20354;-72
2023/07/26 08:26:06;;;;;;;;;;;;;;;16.40;100.00;99719.16;5018042;28;19953;-72
2023/07/26 08:28:32;;;;;;;;;;;;;;;16.50;100.00;99719.53;5017437;28;19921;-72
2023/07/26 08:30:58;;;;;;;;;;;;;;;16.50;100.00;99723.19;5016364;28;19913;-75
2023/07/26 08:33:24;;;;;;;;;;;;;;;16.53;100.00;99730.78;5017618;28;20301;-76
2023/07/26 08:35:51;;;;;;;;;;;;;;;16.57;100.00;99724.69;5017792;28;19932;-75
2023/07/26 08:38:17;;;;;;;;;;;;;;;16.59;100.00;99730.69;5001327;28;19913;-75
2023/07/26 08:40:46;;;;;;;;;;;;;;;16.60;100.00;99731.47;5035063;28;19996;-76
2023/07/26 08:43:21;;;;;;;;;;;;;;;16.62;100.00;99732.47;5019666;28;19917;-75
2023/07/26 08:45:47;;;;;;;;;;;;;;;16.68;100.00;99733.16;5044466;28;19919;-76
2023/07/26 08:48:13;;;;;;;;;;;;;;;16.84;100.00;99735.00;5055247;28;19972;-76
2023/07/26 08:50:42;;;;;;;;;;;;;;;17.10;100.00;99737.16;5053930;28;20335;-75
2023/07/26 08:53:08;;;;;;;;;;;;;;;17.36;100.00;99739.28;5037191;28;20315;-76
2023/07/26 08:55:35;;;;;;;;;;;;;;;17.53;100.00;99736.91;5053743;28;19920;-75
2023/07/26 08:58:01;;;;;;;;;;;;;;;17.57;100.00;99746.00;5053457;28;19995;-75
2023/07/26 09:00:27;;;;;;;;;;;;;;;17.52;100.00;99755.56;5054783;28;19988;-76
2023/07/26 09:02:54;;;;;;;;;;;;;;;17.41;100.00;99758.63;5053394;28;19974;-78
2023/07/26 09:05:20;;;;;;;;;;;;;;;17.19;100.00;99751.16;5053686;28;19908;-76
2023/07/26 09:07:45;;;;;;;;;;;;;;;17.03;100.00;99752.25;5054282;28;19980;-77
2023/07/26 09:10:12;;;;;;;;;;;;;;;16.91;100.00;99756.66;5052649;28;19963;-74
2023/07/26 09:12:37;;;;;;;;;;;;;;;16.85;100.00;99762.50;5054238;28;19915;-76
2023/07/26 09:15:04;;;;;;;;;;;;;;;16.89;100.00;99765.88;5054176;28;19920;-76
2023/07/26 09:17:39;;;;;;;;;;;;;;;17.12;100.00;99757.59;5038483;28;19912;-76
2023/07/26 09:20:07;;;;;;;;;;;;;;;17.42;100.00;99758.09;5034741;28;19913;-75
2023/07/26 09:22:32;;;;;;;;;;;;;;;17.69;100.00;99752.31;5053535;28;20000;-75
2023/07/26 09:24:58;;;;;;;;;;;;;;;17.93;100.00;99760.00;5055061;28;19948;-75
2023/07/26 09:27:23;;;;;;;;;;;;;;;18.04;100.00;99753.94;5052692;28;19908;-76
2023/07/26 09:29:55;;;;;;;;;;;;;;;18.15;100.00;99751.59;5052424;28;20308;-78
2023/07/26 09:32:27;;;;;;;;;;;;;;;18.41;100.00;99750.78;5052133;28;20427;-78
2023/07/26 09:34:53;;;;;;;;;;;;;;;18.77;100.00;99739.38;5052587;28;20341;-76
2023/07/26 09:37:19;;;;;;;;;;;;;;;19.19;100.00;99745.19;5050854;28;20365;-77
2023/07/26 09:39:44;;;;;;;;;;;;;;;19.49;100.00;99751.22;5050833;28;19983;-77
2023/07/26 09:42:09;;;;;;;;;;;;;;;19.59;100.00;99746.47;5050551;28;19908;-75
2023/07/26 09:44:35;;;;;;;;;;;;;;;19.54;100.00;99751.06;5034864;28;19912;-76
2023/07/26 09:47:01;;;;;;;;;;;;;;;19.43;100.00;99759.28;5053035;28;19909;-75
2023/07/26 09:49:29;;;;;;;;;;;;;;;19.03;100.00;99747.94;5054186;28;19920;-75
2023/07/26 09:51:58;;;;;;;;;;;;;;;18.46;100.00;99735.41;5054320;28;19962;-76
2023/07/26 09:54:27;;;;;;;;;;;;;;;18.03;100.00;99750.28;5052932;28;20358;-76
2023/07/26 09:56:53;;;;;;;;;;;;;;;17.70;100.00;99748.09;5054420;28;19908;-75
2023/07/26 09:59:19;;;;;;;;;;;;;;;17.47;100.00;99758.56;5053908;28;19936;-77
2023/07/26 10:01:45;;;;;;;;;;;;;;;17.35;100.00;99752.97;5052688;28;20365;-75
2023/07/26 10:04:22;;;;;;;;;;;;;;;17.37;100.00;99758.19;5053999;28;20343;-77
2023/07/26 10:06:48;;;;;;;;;;;;;;;17.54;100.00;99755.78;5053750;28;19909;-75
2023/07/26 10:09:14;;;;;;;;;;;;;;;17.66;100.00;99757.13;5052693;28;19920;-75
2023/07/26 10:11:40;;;;;;;;;;;;;;;17.78;100.00;99760.56;5053923;28;19944;-77
2023/07/26 10:14:06;;;;;;;;;;;;;;;17.96;100.00;99759.66;5052506;28;19932;-75
2023/07/26 10:16:31;;;;;;;;;;;;;;;18.02;100.00;99765.31;5052681;28;19909;-75
2023/07/26 10:18:57;;;;;;;;;;;;;;;17.98;100.00;99762.00;5052852;28;19913;-75
2023/07/26 10:21:23;;;;;;;;;;;;;;;17.96;100.00;99767.53;5052932;28;19908;-75
2023/07/26 10:23:48;;;;;;;;;;;;;;;17.90;100.00;99761.88;5036203;28;19915;-75
2023/07/26 10:26:14;;;;;;;;;;;;;;;17.78;100.00;99770.00;5052781;28;20354;-76
2023/07/26 10:28:39;;;;;;;;;;;;;;;17.74;100.00;99757.22;5035835;28;19916;-75
2023/07/26 10:31:04;;;;;;;;;;;;;;;17.87;100.00;99768.00;5054033;28;20315;-76
2023/07/26 10:33:29;;;;;;;;;;;;;;;18.09;100.00;99764.63;5053749;28;19909;-76
2023/07/26 10:35:55;;;;;;;;;;;;;;;18.40;100.00;99757.91;5052297;28;19916;-74
2023/07/26 10:38:20;;;;;;;;;;;;;;;18.66;100.00;99759.94;5053594;28;20425;-76
2023/07/26 10:40:46;;;;;;;;;;;;;;;18.85;100.00;99748.94;5052419;28;19932;-75
2023/07/26 10:43:20;;;;;;;;;;;;;;;19.09;100.00;99756.47;5053249;28;19940;-75
2023/07/26 10:45:46;;;;;;;;;;;;;;;19.43;100.00;99760.06;5051968;28;20379;-76
2023/07/26 10:48:11;;;;;;;;;;;;;;;19.67;100.00;99766.78;5035538;28;19944;-75
2023/07/26 10:50:37;;;;;;;;;;;;;;;19.75;100.00;99756.81;5053268;28;20293;-76
2023/07/26 10:53:21;;;;;;;;;;;;;;;19.92;100.00;99753.41;5053997;28;20305;-76
2023/07/26 10:55:46;;;;;;;;;;;;;;;20.15;100.00;99739.06;5057301;28;19939;-78
2023/07/26 10:58:12;;;;;;;;;;;;;;;20.38;100.00;99746.47;5056251;28;20429;-75
2023/07/26 11:00:37;;;;;;;;;;;;;;;20.57;100.00;99751.94;5057301;28;19962;-76
2023/07/26 11:03:02;;;;;;;;;;;;;;;20.90;100.00;99758.81;5056193;28;19909;-76
2023/07/26 11:05:29;;;;;;;;;;;;;;;21.19;100.00;99748.56;5056105;28;20014;-76
2023/07/26 11:08:04;;;;;;;;;;;;;;;21.32;100.00;99746.81;5057344;28;19991;-76
2023/07/26 11:10:30;;;;;;;;;;;;;;;21.41;100.00;99749.91;5057388;28;19916;-76
2023/07/26 11:13:16;;;;;;;;;;;;;;;21.25;100.00;99754.19;5056802;28;19913;-76
2023/07/26 11:15:44;;;;;;;;;;;;;;;20.98;100.00;99741.41;5056777;28;19919;-76
2023/07/26 11:18:10;;;;;;;;;;;;;;;20.88;100.00;99752.81;5056045;28;19908;-74
2023/07/26 11:20:39;;;;;;;;;;;;;;;20.85;100.00;99732.84;5055838;28;20372;-76
2023/07/26 11:23:23;;;;;;;;;;;;;;;20.95;100.00;99734.59;5056245;28;19993;-79
2023/07/26 11:25:49;;;;;;;;;;;;;;;20.91;100.00;99737.13;5055636;28;19908;-76
2023/07/26 11:28:15;;;;;;;;;;;;;;;20.77;100.00;99721.25;5056869;28;20365;-76
2023/07/26 11:30:50;;;;;;;;;;;;;;;20.66;100.00;99731.06;5056925;28;19916;-74
2023/07/26 11:33:35;;;;;;;;;;;;;;;20.73;100.00;99727.44;5056971;28;19993;-77
2023/07/26 11:36:02;;;;;;;;;;;;;;;20.90;100.00;99726.84;5057449;28;19909;-77
2023/07/26 11:38:27;;;;;;;;;;;;;;;20.98;100.00;99724.75;5056848;28;20324;-76
2023/07/26 11:40:58;;;;;;;;;;;;;;;20.94;100.00;99723.59;5055518;28;20405;-77
2023/07/26 11:43:27;;;;;;;;;;;;;;;20.94;100.00;99733.06;5055636;28;19939;-77
2023/07/26 11:45:53;;;;;;;;;;;;;;;21.05;100.00;99729.00;5056909;28;19909;-76
2023/07/26 11:48:18;;;;;;;;;;;;;;;21.11;100.00;99732.50;5056590;28;19908;-78
2023/07/26 11:50:44;;;;;;;;;;;;;;;21.18;100.00;99738.31;5056498;28;20010;-78
2023/07/26 11:53:12;;;;;;;;;;;;;;;21.25;100.00;99733.84;5055087;28;19909;-75
2023/07/26 11:55:41;;;;;;;;;;;;;;;21.32;100.00;99729.38;5055245;28;19912;-77
2023/07/26 11:58:08;;;;;;;;;;;;;;;21.44;100.00;99721.78;5056343;28;19919;-76
2023/07/26 12:00:35;;;;;;;;;;;;;;;21.53;100.00;99719.09;5043889;28;19966;-75
2023/07/26 12:03:04;;;;;;;;;;;;;;;21.55;100.00;99725.13;5056614;28;19958;-77
2023/07/26 12:05:29;;;;;;;;;;;;;;;21.46;99.38;99730.75;5038161;28;20445;-77
2023/07/26 12:07:57;;;;;;;;;;;;;;;21.35;97.46;99722.41;5038484;28;19956;-78
2023/07/26 12:10:31;;;;;;;;;;;;;;;21.41;100.00;99717.94;5038438;28;20370;-76
2023/07/26 12:12:58;;;;;;;;;;;;;;;21.48;100.00;99717.19;5038342;28;20350;-75
2023/07/26 12:15:25;;;;;;;;;;;;;;;21.43;100.00;99721.03;5038465;28;20392;-78
2023/07/26 12:17:57;;;;;;;;;;;;;;;21.28;91.50;99734.81;5038293;28;19947;-76
2023/07/26 12:20:23;;;;;;;;;;;;;;;21.01;94.58;99728.59;5056055;28;19944;-76
2023/07/26 12:22:54;;;;;;;;;;;;;;;20.73;95.01;99732.47;5056266;28;19916;-75
2023/07/26 12:25:20;;;;;;;;;;;;;;;20.53;95.88;99725.44;5037964;28;20349;-77
2023/07/26 12:27:49;;;;;;;;;;;;;;;20.39;98.88;99727.72;5037791;28;20463;-77
2023/07/26 12:30:16;;;;;;;;;;;;;;;20.23;97.76;99731.16;5050231;28;19917;-76
2023/07/26 12:32:42;;;;;;;;;;;;;;;20.03;98.03;99729.91;5038290;28;19913;-76
2023/07/26 12:35:19;;;;;;;;;;;;;;;19.84;100.00;99733.06;5021094;28;19915;-75